Time;durP1;ratioP1;P1;durP2;ratioP2;P2;SDS_P1;SDS_P2;PMS_P1;PMS_P2;Temp;Humidity;BMP_temperature;BMP_pressure;BME280_temperature;BME280_humidity;BME280_pressure;Samples;Min_cycle;Max_cycle;Signal;HPM_P1;HPM_P2
2023/04/01 00:02:11;;;;;;;3.55;1.00;;;20.40;99.90;;;;;;5083769;28;20195;-77
2023/04/01 00:04:42;;;;;;;2.75;1.10;;;20.30;99.90;;;;;;5081818;28;20203;-78
2023/04/01 00:07:14;;;;;;;2.55;1.02;;;20.20;99.90;;;;;;5072538;28;20195;-79
2023/04/01 00:09:45;;;;;;;2.20;0.85;;;20.10;99.90;;;;;;5088204;28;20196;-78
2023/04/01 00:12:16;;;;;;;5.40;1.30;;;20.00;99.90;;;;;;5078006;28;20195;-78
2023/04/01 00:14:47;;;;;;;5.13;1.05;;;20.00;99.90;;;;;;5077038;28;20706;-78
2023/04/01 00:17:21;;;;;;;4.32;1.33;;;19.80;99.90;;;;;;5087212;28;20210;-77
2023/04/01 00:19:52;;;;;;;3.10;1.10;;;19.70;99.90;;;;;;5079767;28;20196;-78
2023/04/01 00:22:23;;;;;;;3.63;1.20;;;19.60;99.90;;;;;;5077464;28;20200;-77
2023/04/01 00:24:54;;;;;;;4.97;1.08;;;19.50;99.90;;;;;;5085697;28;20674;-77
2023/04/01 00:27:25;;;;;;;3.20;1.30;;;19.40;99.90;;;;;;5078465;28;20187;-78
2023/04/01 00:29:56;;;;;;;4.20;1.33;;;19.40;99.90;;;;;;5076557;28;20568;-77
2023/04/01 00:32:31;;;;;;;3.15;1.20;;;19.40;99.90;;;;;;5082742;28;20192;-77
2023/04/01 00:35:02;;;;;;;2.17;1.00;;;19.40;99.90;;;;;;5075803;28;20226;-77
2023/04/01 00:37:33;;;;;;;7.78;1.40;;;19.30;99.90;;;;;;5076050;28;20282;-77
2023/04/01 00:40:04;;;;;;;7.40;1.50;;;19.30;99.90;;;;;;5081398;28;20194;-77
2023/04/01 00:42:35;;;;;;;3.92;1.58;;;19.20;99.90;;;;;;5080903;28;20640;-79
2023/04/01 00:45:31;;;;;;;6.75;2.00;;;19.20;99.90;;;;;;5080319;28;20202;-78
2023/04/01 00:48:08;;;;;;;5.78;1.70;;;19.20;99.90;;;;;;5077104;28;20224;-78
2023/04/01 00:50:42;;;;;;;4.57;1.80;;;19.30;99.90;;;;;;5080931;28;20195;-77
2023/04/01 00:53:14;;;;;;;4.78;1.90;;;19.20;99.90;;;;;;5073260;28;20194;-76
2023/04/01 00:55:52;;;;;;;6.47;2.40;;;19.10;99.90;;;;;;5076145;28;20220;-77
2023/04/01 00:58:26;;;;;;;3.45;1.33;;;19.10;99.90;;;;;;5078882;28;20202;-78
2023/04/01 01:00:59;;;;;;;5.47;2.15;;;19.10;99.90;;;;;;5084893;28;20195;-78
2023/04/01 01:03:32;;;;;;;5.07;1.90;;;19.20;99.90;;;;;;5087838;28;20206;-78
2023/04/01 01:06:23;;;;;;;6.97;2.28;;;19.20;99.90;;;;;;5072055;28;20206;-78
2023/04/01 01:09:12;;;;;;;7.18;2.08;;;19.30;99.90;;;;;;5070149;28;20619;-77
2023/04/01 01:11:51;;;;;;;7.65;1.83;;;19.20;99.90;;;;;;5071586;28;20215;-78
2023/04/01 01:14:38;;;;;;;6.68;2.05;;;19.20;99.90;;;;;;5084730;28;20712;-78
2023/04/01 01:17:19;;;;;;;7.68;1.67;;;19.20;99.90;;;;;;5073509;28;20206;-78
2023/04/01 01:20:30;;;;;;;6.18;1.75;;;19.10;99.90;;;;;;5078701;28;20199;-79
2023/04/01 01:23:37;;;;;;;6.43;2.00;;;19.00;99.90;;;;;;5077968;28;20577;-78
2023/04/01 01:26:34;;;;;;;5.20;1.60;;;19.00;99.90;;;;;;5061019;28;20204;-78
2023/04/01 01:29:20;;;;;;;6.43;1.52;;;19.00;99.90;;;;;;5038230;28;20212;-79
2023/04/01 01:31:58;;;;;;;5.85;1.52;;;19.00;99.90;;;;;;5053975;28;20199;-78
2023/04/01 01:34:35;;;;;;;5.55;1.75;;;19.00;99.90;;;;;;5050999;28;20219;-79
2023/04/01 01:37:12;;;;;;;5.45;1.30;;;19.00;99.90;;;;;;5050822;28;20210;-78
2023/04/01 01:39:45;;;;;;;3.80;1.50;;;19.10;99.90;;;;;;5049727;28;20776;-78
2023/04/01 01:42:20;;;;;;;5.47;1.85;;;19.10;99.90;;;;;;5050855;28;21823;-77
2023/04/01 01:44:54;;;;;;;6.13;1.80;;;19.00;99.90;;;;;;5050823;28;20201;-78
2023/04/01 01:47:27;;;;;;;6.63;1.98;;;19.00;99.90;;;;;;5059047;28;20195;-78
2023/04/01 01:49:59;;;;;;;6.20;1.77;;;19.00;99.90;;;;;;5087740;28;21573;-78
2023/04/01 01:52:33;;;;;;;6.93;2.35;;;19.00;99.90;;;;;;5079288;28;20654;-77
2023/04/01 01:55:04;;;;;;;6.60;2.00;;;19.10;99.90;;;;;;5087568;28;20222;-78
2023/04/01 01:57:39;;;;;;;6.88;1.98;;;19.00;99.90;;;;;;5084138;28;20188;-78
2023/04/01 02:00:13;;;;;;;5.60;1.83;;;19.00;99.90;;;;;;5072577;28;20562;-79
2023/04/01 02:02:45;;;;;;;5.40;1.88;;;19.00;99.90;;;;;;5085727;28;20278;-77
2023/04/01 02:05:21;;;;;;;4.93;1.65;;;19.00;99.90;;;;;;5081017;28;20569;-77
2023/04/01 02:08:00;;;;;;;5.25;2.10;;;19.10;99.90;;;;;;5078030;28;20662;-78
2023/04/01 02:10:34;;;;;;;8.68;2.00;;;19.10;99.90;;;;;;5076725;28;20241;-77
2023/04/01 02:13:11;;;;;;;6.72;2.45;;;19.10;99.90;;;;;;5089371;28;20723;-78
2023/04/01 02:15:47;;;;;;;6.28;2.30;;;19.10;99.90;;;;;;5092874;28;20226;-79
2023/04/01 02:18:21;;;;;;;8.55;2.65;;;19.20;99.90;;;;;;5084055;28;20199;-78
2023/04/01 02:20:55;;;;;;;13.32;2.33;;;19.20;99.90;;;;;;5093783;28;20205;-77
2023/04/01 02:23:29;;;;;;;7.55;2.33;;;19.20;99.90;;;;;;5079777;28;20300;-78
2023/04/01 02:26:00;;;;;;;7.97;1.83;;;19.20;99.90;;;;;;5091042;28;20291;-78
2023/04/01 02:28:34;;;;;;;7.07;2.28;;;19.20;99.90;;;;;;5090130;28;20199;-79
2023/04/01 02:31:06;;;;;;;7.38;2.03;;;19.20;99.90;;;;;;5074912;28;20202;-77
2023/04/01 02:33:37;;;;;;;7.60;2.00;;;19.00;99.90;;;;;;5090818;28;20196;-78
2023/04/01 02:36:08;;;;;;;6.00;1.50;;;18.90;99.90;;;;;;5073766;28;20231;-77
2023/04/01 02:38:43;;;;;;;5.38;1.58;;;18.80;99.90;;;;;;5077803;28;20677;-77
2023/04/01 02:41:16;;;;;;;5.45;1.55;;;18.80;99.90;;;;;;5092279;28;20194;-77
2023/04/01 02:43:47;;;;;;;4.28;1.75;;;18.80;99.90;;;;;;5060800;28;20203;-76
2023/04/01 02:46:19;;;;;;;4.43;1.83;;;18.80;99.90;;;;;;5054269;28;21479;-77
2023/04/01 02:48:50;;;;;;;5.30;1.80;;;18.80;99.90;;;;;;5054946;28;20207;-77
2023/04/01 02:51:21;;;;;;;6.28;2.03;;;18.70;99.90;;;;;;5063416;28;20206;-77
2023/04/01 02:53:54;;;;;;;6.47;2.03;;;18.70;99.90;;;;;;5054648;28;20199;-77
2023/04/01 02:56:25;;;;;;;6.75;2.00;;;18.70;99.90;;;;;;5056515;28;20238;-78
2023/04/01 02:58:56;;;;;;;7.35;2.97;;;18.70;99.90;;;;;;5054319;28;20815;-78
2023/04/01 03:01:27;;;;;;;10.55;3.08;;;18.80;99.90;;;;;;5054953;28;20214;-77
2023/04/01 03:03:59;;;;;;;7.13;2.70;;;18.90;99.90;;;;;;5057792;28;20192;-78
2023/04/01 03:06:30;;;;;;;9.88;2.55;;;18.90;99.90;;;;;;5095008;28;20278;-77
2023/04/01 03:09:03;;;;;;;7.38;1.98;;;19.00;99.90;;;;;;5087925;28;20207;-76
2023/04/01 03:11:35;;;;;;;6.55;1.80;;;19.00;99.90;;;;;;5075491;28;20227;-77
2023/04/01 03:14:06;;;;;;;9.70;2.10;;;18.80;99.90;;;;;;5076436;28;20227;-78
2023/04/01 03:16:37;;;;;;;10.23;2.90;;;18.80;99.90;;;;;;5074320;28;20259;-77
2023/04/01 03:19:09;;;;;;;4.57;1.80;;;18.80;99.90;;;;;;5092439;28;20669;-77
2023/04/01 03:21:40;;;;;;;6.82;1.70;;;18.80;99.90;;;;;;5078430;28;20196;-77
2023/04/01 03:24:13;;;;;;;6.07;1.50;;;18.80;99.90;;;;;;5073553;28;20236;-78
2023/04/01 03:26:44;;;;;;;5.82;1.52;;;18.70;99.90;;;;;;5073128;28;20557;-77
2023/04/01 03:29:15;;;;;;;4.38;1.58;;;18.70;99.90;;;;;;5072906;28;20207;-77
2023/04/01 03:31:46;;;;;;;5.53;1.55;;;18.80;99.90;;;;;;5072356;28;20192;-77
2023/04/01 03:34:17;;;;;;;5.30;1.40;;;18.90;99.90;;;;;;5072504;28;20200;-77
2023/04/01 03:36:48;;;;;;;9.48;2.20;;;19.00;99.90;;;;;;5071130;28;20222;-77
2023/04/01 03:39:21;;;;;;;9.27;1.95;;;18.90;99.90;;;;;;5071929;28;20207;-78
2023/04/01 03:41:52;;;;;;;3.75;1.15;;;18.80;99.90;;;;;;5072108;28;20200;-77
2023/04/01 03:44:23;;;;;;;7.20;1.70;;;18.80;99.90;;;;;;5091500;28;20195;-77
2023/04/01 03:46:58;;;;;;;6.38;1.58;;;18.80;99.90;;;;;;5091959;28;20215;-78
2023/04/01 03:49:29;;;;;;;9.02;2.15;;;18.70;99.90;;;;;;5074302;28;20244;-78
2023/04/01 03:52:01;;;;;;;7.20;1.90;;;18.80;99.90;;;;;;5071767;28;20202;-77
2023/04/01 03:54:34;;;;;;;6.82;1.48;;;18.80;99.90;;;;;;5076918;28;20208;-77
2023/04/01 03:57:05;;;;;;;4.85;1.70;;;18.80;99.90;;;;;;5082895;28;20219;-77
2023/04/01 03:59:36;;;;;;;5.63;1.80;;;18.80;99.90;;;;;;5086430;28;20204;-77
2023/04/01 04:02:07;;;;;;;4.05;1.40;;;18.90;99.90;;;;;;5071237;28;20195;-77
2023/04/01 04:04:38;;;;;;;5.63;1.48;;;18.90;99.90;;;;;;5071628;28;20206;-77
2023/04/01 04:07:09;;;;;;;5.95;1.70;;;18.90;99.90;;;;;;5071608;28;20574;-77
2023/04/01 04:09:43;;;;;;;6.53;1.52;;;18.80;99.90;;;;;;5071422;28;20196;-78
2023/04/01 04:12:14;;;;;;;3.92;1.50;;;18.80;99.90;;;;;;5071318;28;20662;-77
2023/04/01 04:14:45;;;;;;;6.30;1.77;;;18.90;99.90;;;;;;5069986;28;20698;-78
2023/04/01 04:17:16;;;;;;;7.00;1.80;;;19.00;99.90;;;;;;5074844;28;20223;-78
2023/04/01 04:19:47;;;;;;;6.65;1.85;;;19.00;99.90;;;;;;5091341;28;20200;-78
2023/04/01 04:22:18;;;;;;;5.68;1.60;;;19.00;99.90;;;;;;5091367;28;20195;-78
2023/04/01 04:24:51;;;;;;;4.15;1.35;;;19.00;99.90;;;;;;5091577;28;20209;-77
2023/04/01 04:27:22;;;;;;;4.70;1.48;;;19.00;99.90;;;;;;5091326;28;20214;-78
2023/04/01 04:29:53;;;;;;;7.40;1.85;;;19.10;99.90;;;;;;5081379;28;20192;-78
2023/04/01 04:32:24;;;;;;;4.80;1.33;;;19.00;99.90;;;;;;5071071;28;20662;-77
2023/04/01 04:34:55;;;;;;;5.07;1.55;;;18.90;99.90;;;;;;5089408;28;20213;-77
2023/04/01 04:37:27;;;;;;;3.50;1.40;;;18.80;99.90;;;;;;5093110;28;20195;-78
2023/04/01 04:40:03;;;;;;;8.93;1.90;;;18.80;99.90;;;;;;5093676;28;20199;-79
2023/04/01 04:42:35;;;;;;;9.02;1.75;;;18.80;99.90;;;;;;5093050;28;20226;-78
2023/04/01 04:45:07;;;;;;;7.00;1.92;;;18.90;99.90;;;;;;5092535;28;20199;-77
2023/04/01 04:47:38;;;;;;;4.80;1.60;;;18.90;99.90;;;;;;5079876;28;20287;-78
2023/04/01 04:50:10;;;;;;;4.88;1.20;;;18.90;99.90;;;;;;5072494;28;20200;-77
2023/04/01 04:52:41;;;;;;;8.38;1.60;;;18.90;99.90;;;;;;5072183;28;20678;-77
2023/04/01 04:55:14;;;;;;;5.70;1.65;;;18.80;99.90;;;;;;5073268;28;20580;-78
2023/04/01 04:57:45;;;;;;;7.05;1.35;;;18.90;99.90;;;;;;5094495;28;20191;-78
2023/04/01 05:00:17;;;;;;;4.72;1.33;;;18.90;99.90;;;;;;5094561;28;20226;-78
2023/04/01 05:02:48;;;;;;;5.47;1.45;;;18.90;99.90;;;;;;5090859;28;20673;-78
2023/04/01 05:05:19;;;;;;;7.13;2.15;;;19.00;99.90;;;;;;5090787;28;20689;-78
2023/04/01 05:07:50;;;;;;;6.72;1.65;;;19.10;99.90;;;;;;5083516;28;20544;-78
2023/04/01 05:10:23;;;;;;;5.57;1.50;;;19.10;99.90;;;;;;5070825;28;20215;-78
2023/04/01 05:12:55;;;;;;;7.75;1.67;;;19.00;99.90;;;;;;5072207;28;20564;-78
2023/04/01 05:15:26;;;;;;;6.22;1.40;;;19.10;99.90;;;;;;5072845;28;20196;-78
2023/04/01 05:17:57;;;;;;;6.30;1.50;;;19.10;99.90;;;;;;5070858;28;20204;-78
2023/04/01 05:20:28;;;;;;;5.05;1.25;;;19.20;99.90;;;;;;5070148;28;20200;-78
2023/04/01 05:23:00;;;;;;;3.80;1.20;;;19.40;99.90;;;;;;5070697;28;20274;-78
2023/04/01 05:25:33;;;;;;;7.07;1.40;;;19.50;99.90;;;;;;5083255;28;20211;-77
2023/04/01 05:28:04;;;;;;;6.40;1.65;;;19.50;99.90;;;;;;5091210;28;20195;-78
2023/04/01 05:30:35;;;;;;;4.15;1.30;;;19.60;99.90;;;;;;5092694;28;20200;-78
2023/04/01 05:33:07;;;;;;;2.70;1.08;;;19.60;99.90;;;;;;5092040;28;20203;-78
2023/04/01 05:35:38;;;;;;;6.53;1.77;;;19.70;99.90;;;;;;5090144;28;20219;-79
2023/04/01 05:38:09;;;;;;;4.70;1.20;;;19.80;99.90;;;;;;5074749;28;20203;-77
2023/04/01 05:40:42;;;;;;;5.85;1.15;;;20.00;99.90;;;;;;5074525;28;20202;-78
2023/04/01 05:43:13;;;;;;;4.85;1.20;;;20.10;99.90;;;;;;5075000;28;20547;-78
2023/04/01 05:45:44;;;;;;;4.32;1.10;;;20.40;99.90;;;;;;5079262;28;20202;-77
2023/04/01 05:48:15;;;;;;;5.68;1.30;;;20.50;99.90;;;;;;5095055;28;20222;-78
2023/04/01 05:50:46;;;;;;;3.97;1.40;;;20.70;99.90;;;;;;5093632;28;20562;-78
2023/04/01 05:53:18;;;;;;;4.57;1.38;;;20.70;99.90;;;;;;5074304;28;20654;-78
2023/04/01 05:55:51;;;;;;;1.85;0.90;;;20.80;99.90;;;;;;5088960;28;20226;-77
2023/04/01 05:58:22;;;;;;;3.70;1.20;;;20.80;99.90;;;;;;5075126;28;20195;-78
2023/04/01 06:00:53;;;;;;;4.15;1.10;;;20.80;99.90;;;;;;5073835;28;20199;-76
2023/04/01 06:03:24;;;;;;;3.50;1.15;;;20.80;99.90;;;;;;5091525;28;20204;-78
2023/04/01 06:05:55;;;;;;;6.30;1.30;;;20.70;99.90;;;;;;5093270;28;20207;-79
2023/04/01 06:08:26;;;;;;;4.25;1.10;;;20.70;99.90;;;;;;5094047;28;20206;-78
2023/04/01 06:11:16;;;;;;;4.32;1.20;;;20.70;99.90;;;;;;5093918;28;20230;-78
2023/04/01 06:14:09;;;;;;;4.28;1.33;;;20.60;99.90;;;;;;5073716;28;20223;-77
2023/04/01 06:16:56;;;;;;;7.88;1.17;;;20.60;99.90;;;;;;5074710;28;20228;-79
2023/04/01 06:19:34;;;;;;;4.47;1.35;;;20.50;99.90;;;;;;5081906;28;20669;-79
2023/04/01 06:22:25;;;;;;;7.07;1.20;;;20.40;99.90;;;;;;5092623;28;20206;-79
2023/04/01 06:25:32;;;;;;;4.95;1.13;;;20.40;99.90;;;;;;5092584;28;20222;-79
2023/04/01 06:28:23;;;;;;;2.50;1.10;;;20.20;99.90;;;;;;5085915;28;20195;-78
2023/04/01 06:31:01;;;;;;;4.45;1.40;;;20.20;99.90;;;;;;5073401;28;20196;-78
2023/04/01 06:33:55;;;;;;;3.85;1.27;;;20.20;99.90;;;;;;5085992;28;20206;-79
2023/04/01 06:36:58;;;;;;;3.45;1.10;;;20.20;99.90;;;;;;5074520;28;20374;-78
2023/04/01 06:39:45;;;;;;;4.75;1.13;;;20.20;99.90;;;;;;5073367;28;20202;-78
2023/04/01 06:42:33;;;;;;;2.78;1.10;;;20.30;99.90;;;;;;5086907;28;20199;-78
2023/04/01 06:45:18;;;;;;;2.83;1.02;;;20.30;99.90;;;;;;5087924;28;20681;-77
2023/04/01 06:48:04;;;;;;;5.20;1.40;;;20.40;99.90;;;;;;5089633;28;20207;-78
2023/04/01 06:50:45;;;;;;;4.43;1.60;;;20.40;99.90;;;;;;5084474;28;20268;-78
2023/04/01 06:53:24;;;;;;;7.20;2.28;;;20.50;99.90;;;;;;5090128;28;20577;-77
2023/04/01 06:55:59;;;;;;;6.55;1.80;;;20.50;99.90;;;;;;5089632;28;20195;-79
2023/04/01 06:58:36;;;;;;;4.03;1.27;;;20.50;99.90;;;;;;5077364;28;20187;-79
2023/04/01 07:01:13;;;;;;;5.38;1.60;;;20.60;99.90;;;;;;5092311;28;20650;-78
2023/04/01 07:03:47;;;;;;;5.47;1.52;;;20.60;99.90;;;;;;5089209;28;20206;-79
2023/04/01 07:06:24;;;;;;;3.53;1.15;;;20.50;99.90;;;;;;5089609;28;20613;-78
2023/04/01 07:08:56;;;;;;;5.18;1.30;;;20.50;99.90;;;;;;5086924;28;20680;-78
2023/04/01 07:11:31;;;;;;;4.95;1.80;;;20.50;99.90;;;;;;5090479;28;20219;-79
2023/04/01 07:14:08;;;;;;;4.07;1.33;;;20.50;99.90;;;;;;5090358;28;20231;-78
2023/04/01 07:16:46;;;;;;;2.67;1.40;;;20.50;99.90;;;;;;5088105;28;20224;-77
2023/04/01 07:19:23;;;;;;;3.88;1.17;;;20.50;99.90;;;;;;5079411;28;20205;-78
2023/04/01 07:21:58;;;;;;;4.75;1.08;;;20.50;99.90;;;;;;5091020;28;20213;-78
2023/04/01 07:24:34;;;;;;;3.22;1.05;;;20.50;99.90;;;;;;5076113;28;20202;-78
2023/04/01 07:27:08;;;;;;;4.03;1.25;;;20.40;99.90;;;;;;5091698;28;20195;-77
2023/04/01 07:29:39;;;;;;;4.28;1.50;;;20.40;99.90;;;;;;5088088;28;20199;-79
2023/04/01 07:32:34;;;;;;;3.70;1.83;;;20.30;99.90;;;;;;5075245;28;20195;-77
2023/04/01 07:35:15;;;;;;;4.20;1.40;;;20.30;99.90;;;;;;5090866;28;20207;-78
2023/04/01 07:37:56;;;;;;;6.50;1.65;;;20.20;99.90;;;;;;5081338;28;20229;-77
2023/04/01 07:40:34;;;;;;;2.83;1.30;;;20.20;99.90;;;;;;5080119;28;20202;-79
2023/04/01 07:43:28;;;;;;;5.38;1.20;;;20.20;99.90;;;;;;5081250;28;20572;-78
2023/04/01 07:46:13;;;;;;;2.80;1.10;;;20.20;99.90;;;;;;5086141;28;20200;-77
2023/04/01 07:48:53;;;;;;;2.45;1.10;;;20.20;99.90;;;;;;5092329;28;20681;-79
2023/04/01 07:51:30;;;;;;;2.80;1.15;;;20.20;99.90;;;;;;5091856;28;20206;-79
2023/04/01 07:54:08;;;;;;;4.90;1.40;;;20.10;99.90;;;;;;5090002;28;20206;-79
2023/04/01 07:56:45;;;;;;;5.60;1.55;;;20.10;99.90;;;;;;5085726;28;20674;-77
2023/04/01 07:59:22;;;;;;;4.90;2.30;;;20.10;99.90;;;;;;5072235;28;20196;-78
2023/04/01 08:02:01;;;;;;;3.38;1.20;;;20.10;99.90;;;;;;5072098;28;20667;-77
2023/04/01 08:04:51;;;;;;;4.57;1.40;;;20.10;99.90;;;;;;5071296;28;20219;-79
2023/04/01 08:07:25;;;;;;;6.65;1.90;;;20.10;99.90;;;;;;5088241;28;20195;-78
2023/04/01 08:10:05;;;;;;;5.72;1.67;;;20.10;99.90;;;;;;5092570;28;20690;-79
2023/04/01 08:12:47;;;;;;;4.53;1.55;;;20.10;99.90;;;;;;5083254;28;20227;-79
2023/04/01 08:15:26;;;;;;;6.60;1.85;;;20.10;99.90;;;;;;5054453;28;20196;-79
2023/04/01 08:18:14;;;;;;;7.72;1.98;;;20.10;99.90;;;;;;5044054;28;20260;-79
2023/04/01 08:20:51;;;;;;;4.28;1.38;;;20.10;99.90;;;;;;5037895;28;20197;-78
2023/04/01 08:23:26;;;;;;;3.67;1.00;;;20.10;99.90;;;;;;5036937;28;20571;-78
2023/04/01 08:26:04;;;;;;;5.82;2.55;;;20.10;99.90;;;;;;5041168;28;20189;-78
2023/04/01 08:28:42;;;;;;;6.57;1.77;;;20.10;99.90;;;;;;5051316;28;20204;-78
2023/04/01 08:31:18;;;;;;;5.85;1.58;;;20.10;99.90;;;;;;5053378;28;20224;-77
2023/04/01 08:33:51;;;;;;;7.47;2.17;;;20.10;99.90;;;;;;5039593;28;20212;-78
2023/04/01 08:36:29;;;;;;;5.43;3.22;;;20.10;99.90;;;;;;5041497;28;20328;-79
2023/04/01 08:39:15;;;;;;;4.25;1.70;;;20.10;99.90;;;;;;5057897;28;20569;-77
2023/04/01 08:42:31;;;;;;;4.93;2.00;;;20.10;99.90;;;;;;5055420;28;20242;-77
2023/04/01 08:45:26;;;;;;;7.25;1.35;;;20.10;99.90;;;;;;5026482;28;20209;-76
2023/04/01 08:48:28;;;;;;;6.80;2.60;;;20.10;99.90;;;;;;5038519;28;20192;-77
2023/04/01 08:51:35;;;;;;;9.40;2.40;;;20.10;99.90;;;;;;5032938;28;20661;-77
2023/04/01 08:54:29;;;;;;;5.72;1.70;;;20.10;99.90;;;;;;5032576;28;20212;-78
2023/04/01 08:57:07;;;;;;;7.25;2.80;;;20.10;99.90;;;;;;5034667;28;20224;-80
2023/04/01 09:00:12;;;;;;;7.72;2.55;;;20.10;99.90;;;;;;5035091;28;20205;-79
2023/04/01 09:02:56;;;;;;;7.80;2.13;;;20.10;99.90;;;;;;5034242;28;20205;-77
2023/04/01 09:05:41;;;;;;;6.63;2.10;;;20.10;99.90;;;;;;5035374;28;20205;-77
2023/04/01 09:08:33;;;;;;;10.25;1.55;;;20.10;99.90;;;;;;5036380;28;20204;-79
2023/04/01 09:11:28;;;;;;;19.65;6.53;;;20.10;99.90;;;;;;5034772;28;20217;-78
2023/04/01 09:14:27;;;;;;;9.30;3.00;;;20.00;99.90;;;;;;5067919;28;20770;-78
2023/04/01 09:17:44;;;;;;;15.52;6.10;;;20.00;99.90;;;;;;5094152;28;20723;-78
2023/04/01 09:20:35;;;;;;;11.32;6.35;;;20.00;99.90;;;;;;5095006;28;20213;-78
2023/04/01 09:23:28;;;;;;;24.15;18.02;;;20.00;99.90;;;;;;5086981;28;20207;-78
2023/04/01 09:26:14;;;;;;;10.90;7.32;;;20.00;99.90;;;;;;5075319;28;20212;-78
2023/04/01 09:28:57;;;;;;;10.23;5.10;;;20.00;99.90;;;;;;5072783;28;20200;-77
2023/04/01 09:31:52;;;;;;;6.50;2.53;;;20.00;99.90;;;;;;5075329;28;20210;-77
2023/04/01 09:34:49;;;;;;;6.18;2.28;;;20.00;99.90;;;;;;5088967;28;20226;-78
2023/04/01 09:37:29;;;;;;;6.28;1.98;;;19.90;99.90;;;;;;5095788;28;20689;-76
2023/04/01 09:40:22;;;;;;;7.90;2.63;;;20.00;99.90;;;;;;5083990;28;20200;-78
2023/04/01 09:43:25;;;;;;;13.05;5.15;;;19.90;99.90;;;;;;5076210;28;20196;-79
2023/04/01 09:46:25;;;;;;;3.83;1.83;;;19.80;99.90;;;;;;5083687;28;20203;-78
2023/04/01 09:49:25;;;;;;;6.43;1.77;;;19.90;99.90;;;;;;5094816;28;20850;-78
2023/04/01 09:52:10;;;;;;;4.18;1.70;;;19.90;99.90;;;;;;5095562;28;20290;-79
2023/04/01 09:55:09;;;;;;;5.15;1.45;;;19.90;99.90;;;;;;5094220;28;20227;-77
2023/04/01 09:58:16;;;;;;;4.45;1.67;;;19.80;99.90;;;;;;5075812;28;20251;-76
2023/04/01 10:01:13;;;;;;;7.18;1.77;;;19.80;99.90;;;;;;5051856;28;20188;-78
2023/04/01 10:04:18;;;;;;;5.50;1.88;;;19.70;99.90;;;;;;5074043;28;20661;-77
2023/04/01 10:07:18;;;;;;;15.80;6.32;;;19.70;99.90;;;;;;5093069;28;20196;-77
2023/04/01 10:10:35;;;;;;;4.63;2.25;;;19.70;99.90;;;;;;5094038;28;20195;-77
2023/04/01 10:13:59;;;;;;;4.00;1.63;;;19.70;99.90;;;;;;5095490;28;20210;-78
2023/04/01 10:17:16;;;;;;;7.75;1.60;;;19.70;99.90;;;;;;5037720;28;20201;-77
2023/04/01 10:20:33;;;;;;;3.55;1.48;;;19.60;99.90;;;;;;5025210;28;20205;-76
2023/04/01 10:23:27;;;;;;;3.10;1.27;;;19.60;99.90;;;;;;5039583;28;20283;-77
2023/04/01 10:26:29;;;;;;;4.78;1.75;;;19.60;99.90;;;;;;5081439;28;20702;-77
2023/04/01 10:29:33;;;;;;;5.07;1.50;;;19.60;99.90;;;;;;5093493;28;20213;-77
2023/04/01 10:32:32;;;;;;;6.20;1.40;;;19.60;99.90;;;;;;5084085;28;20286;-78
2023/04/01 10:35:48;;;;;;;6.68;1.90;;;19.60;99.90;;;;;;5057095;28;20205;-78
2023/04/01 10:38:57;;;;;;;5.50;1.60;;;19.60;99.90;;;;;;5081996;28;20610;-78
2023/04/01 10:41:56;;;;;;;5.95;1.63;;;19.50;99.90;;;;;;5102514;28;20192;-77
2023/04/01 10:45:09;;;;;;;3.05;1.50;;;19.50;99.90;;;;;;5096504;28;20203;-77
2023/04/01 10:48:09;;;;;;;5.47;1.95;;;19.40;99.90;;;;;;5089304;28;20670;-77
2023/04/01 10:51:18;;;;;;;5.30;1.60;;;19.40;99.90;;;;;;5099037;28;20207;-77
2023/04/01 10:54:23;;;;;;;5.05;1.50;;;19.40;99.90;;;;;;5085673;28;20205;-78
2023/04/01 10:56:59;;;;;;;3.95;1.35;;;19.40;99.90;;;;;;5096379;28;20283;-78
2023/04/01 10:59:54;;;;;;;11.23;1.50;;;19.30;99.90;;;;;;5093738;28;20227;-78
2023/04/01 11:02:58;;;;;;;5.20;1.50;;;19.30;99.90;;;;;;5078961;28;20196;-77
2023/04/01 11:06:19;;;;;;;5.45;1.38;;;19.30;99.90;;;;;;5089459;28;20245;-78
2023/04/01 11:09:30;;;;;;;2.90;0.98;;;19.20;99.90;;;;;;5086052;28;20279;-77
2023/04/01 11:12:38;;;;;;;3.90;1.25;;;19.20;99.90;;;;;;5093633;28;20269;-79
2023/04/01 11:15:44;;;;;;;4.60;1.38;;;19.20;99.90;;;;;;5083930;28;20645;-76
2023/04/01 11:18:46;;;;;;;8.88;1.50;;;19.20;99.90;;;;;;5079110;28;20234;-80
2023/04/01 11:21:49;;;;;;;3.50;1.30;;;19.10;99.90;;;;;;5089695;28;20658;-79
2023/04/01 11:24:57;;;;;;;6.32;1.50;;;19.10;99.90;;;;;;5078720;28;20200;-78
2023/04/01 11:27:45;;;;;;;2.45;0.80;;;19.20;99.90;;;;;;5083217;28;20205;-78
2023/04/01 11:30:28;;;;;;;2.70;0.95;;;19.10;99.90;;;;;;5097335;28;20681;-77
2023/04/01 11:33:06;;;;;;;4.25;1.23;;;19.20;99.90;;;;;;5096540;28;20609;-77
2023/04/01 11:36:11;;;;;;;2.17;0.95;;;19.10;99.90;;;;;;5096393;28;20238;-78
2023/04/01 11:39:20;;;;;;;3.05;1.20;;;19.20;99.90;;;;;;5085964;28;20223;-76
2023/04/01 11:42:05;;;;;;;2.80;1.00;;;19.20;99.90;;;;;;5097899;28;20195;-77
2023/04/01 11:44:42;;;;;;;3.28;1.00;;;19.20;99.90;;;;;;5077697;28;20195;-76
2023/04/01 11:47:32;;;;;;;4.32;1.20;;;19.20;99.90;;;;;;5091708;28;20203;-79
2023/04/01 11:50:23;;;;;;;2.35;0.93;;;19.20;99.90;;;;;;5092113;28;20662;-80
2023/04/01 11:53:14;;;;;;;3.10;1.10;;;19.10;99.90;;;;;;5093808;28;20217;-77
2023/04/01 11:55:59;;;;;;;4.03;1.08;;;19.00;99.90;;;;;;5089887;28;20199;-78
2023/04/01 11:58:50;;;;;;;5.45;1.50;;;19.00;99.90;;;;;;5095042;28;20207;-77
2023/04/01 12:01:50;;;;;;;5.50;1.23;;;18.90;99.90;;;;;;5077494;28;20208;-77
2023/04/01 12:04:54;;;;;;;3.42;1.05;;;18.90;99.90;;;;;;5076137;28;20192;-77
2023/04/01 12:07:37;;;;;;;2.85;0.93;;;18.90;99.90;;;;;;5073823;28;20276;-77
2023/04/01 12:10:23;;;;;;;2.55;1.10;;;19.00;99.90;;;;;;5075527;28;20216;-77
2023/04/01 12:13:03;;;;;;;1.65;0.93;;;19.00;99.90;;;;;;5091703;28;20195;-77
2023/04/01 12:15:50;;;;;;;3.67;1.02;;;19.00;99.90;;;;;;5085668;28;20241;-78
2023/04/01 12:18:29;;;;;;;2.75;1.00;;;19.10;99.90;;;;;;5074263;28;20230;-76
2023/04/01 12:21:05;;;;;;;3.67;1.13;;;19.10;99.90;;;;;;5076355;28;20200;-78
2023/04/01 12:24:03;;;;;;;4.30;1.42;;;19.10;99.90;;;;;;5096223;28;20191;-80
2023/04/01 12:26:50;;;;;;;2.97;1.13;;;19.00;99.90;;;;;;5096305;28;20223;-78
2023/04/01 12:29:46;;;;;;;2.53;1.10;;;19.10;99.90;;;;;;5091354;28;20253;-78
2023/04/01 12:32:29;;;;;;;3.72;1.30;;;19.00;99.90;;;;;;5085358;28;20193;-78
2023/04/01 12:35:17;;;;;;;5.65;1.20;;;18.90;99.90;;;;;;5091095;28;20199;-78
2023/04/01 12:37:55;;;;;;;3.63;1.10;;;18.80;99.90;;;;;;5088636;28;20237;-78
2023/04/01 12:40:53;;;;;;;4.35;1.40;;;18.70;99.90;;;;;;5091504;28;20198;-79
2023/04/01 12:43:50;;;;;;;1.75;0.90;;;18.70;99.90;;;;;;5065073;28;20204;-77
2023/04/01 12:46:32;;;;;;;4.50;1.10;;;18.60;99.90;;;;;;5085492;28;20210;-77
2023/04/01 12:49:24;;;;;;;2.25;0.90;;;18.60;99.90;;;;;;5076801;28;20670;-77
2023/04/01 12:52:23;;;;;;;3.88;1.00;;;18.60;99.90;;;;;;5077990;28;20214;-79
2023/04/01 12:55:21;;;;;;;3.13;1.20;;;18.60;99.90;;;;;;5062898;28;20203;-76
2023/04/01 12:58:23;;;;;;;1.88;0.80;;;18.50;99.90;;;;;;5070728;28;20248;-77
2023/04/01 13:01:10;;;;;;;3.33;1.15;;;18.40;99.90;;;;;;5093940;28;20187;-77
2023/04/01 13:04:03;;;;;;;3.20;0.98;;;18.50;99.90;;;;;;5088530;28;20199;-77
2023/04/01 13:07:07;;;;;;;1.25;0.85;;;18.50;99.90;;;;;;5088748;28;20191;-77
2023/04/01 13:09:58;;;;;;;5.63;1.20;;;18.40;99.90;;;;;;5075794;28;20196;-76
2023/04/01 13:13:00;;;;;;;3.30;1.30;;;18.40;99.90;;;;;;5075709;28;20646;-78
2023/04/01 13:15:40;;;;;;;3.75;1.00;;;18.40;99.90;;;;;;5078552;28;20188;-77
2023/04/01 13:18:39;;;;;;;4.68;1.05;;;18.50;99.90;;;;;;5078906;28;20235;-75
2023/04/01 13:21:19;;;;;;;4.07;1.02;;;18.60;99.90;;;;;;5081422;28;20195;-77
2023/04/01 13:24:05;;;;;;;2.83;1.15;;;18.60;99.90;;;;;;5091142;28;20194;-78
2023/04/01 13:26:44;;;;;;;2.80;1.08;;;18.60;99.90;;;;;;5084597;28;20265;-79
2023/04/01 13:29:20;;;;;;;3.17;1.08;;;18.60;99.90;;;;;;5090142;28;20688;-77
2023/04/01 13:32:14;;;;;;;3.72;1.25;;;18.60;99.90;;;;;;5090498;28;20573;-80
2023/04/01 13:35:08;;;;;;;3.67;1.33;;;18.50;99.90;;;;;;5085545;28;20677;-78
2023/04/01 13:37:53;;;;;;;2.45;1.00;;;18.50;99.90;;;;;;5077809;28;20199;-77
2023/04/01 13:40:39;;;;;;;2.83;1.00;;;18.50;99.90;;;;;;5071388;28;20663;-78
2023/04/01 13:43:19;;;;;;;2.55;0.95;;;18.50;99.90;;;;;;5076423;28;20203;-78
2023/04/01 13:46:29;;;;;;;3.10;1.10;;;18.40;99.90;;;;;;5076477;28;20246;-78
2023/04/01 13:49:31;;;;;;;3.60;1.30;;;18.40;99.90;;;;;;5070555;28;20203;-78
2023/04/01 13:52:38;;;;;;;4.35;1.35;;;18.40;99.90;;;;;;5068049;28;20574;-78
2023/04/01 13:55:38;;;;;;;3.30;1.15;;;18.40;99.90;;;;;;5068926;28;20209;-78
2023/04/01 13:58:38;;;;;;;4.57;1.30;;;18.50;99.90;;;;;;5083608;28;20611;-77
2023/04/01 14:01:16;;;;;;;3.30;1.02;;;18.60;99.90;;;;;;5096439;28;20207;-78
2023/04/01 14:04:21;;;;;;;3.08;0.98;;;18.70;99.90;;;;;;5093116;28;20221;-77
2023/04/01 14:07:10;;;;;;;3.83;1.00;;;18.70;99.90;;;;;;5097551;28;20247;-77